Terminal Aerodrome Forecast
Issued by NWS

Home | Current Version | Previous Version | Text Only | Print | Product List | Glossary On
Versions: 1 2 3 4 5 6 7 8 9 10 11 12 13 14 15 16 17 18 19 20 21 22 23
000
FTUS43 KAPX 031132
TAFMBL
TAF
KMBL 031132Z 0312/0412 16005KT P6SM BKN040 OVC080 WS015/22025KT
     FM031300 15005KT 2SM -SN SCT009 OVC018 WS015/22025KT
     FM031500 14007KT 3/4SM -SN OVC005 WS015/18027KT
     FM031900 19010KT 2SM -FZDZSN OVC007
     FM032200 25010KT P6SM OVC012
     FM040100 28009G17KT P6SM BKN028
      AMD LTD TO CLD VIS AND WIND=

USA.gov is the U.S. government's official web portal to all federal, state and local government web resources and services.